createdAt,value
2017-03-24T00:01:10.430Z,9.02
2017-03-24T00:02:23.877Z,9.05
2017-03-24T00:03:37.604Z,9.05
2017-03-24T00:04:51.468Z,9.08
2017-03-24T00:06:05.855Z,9
2017-03-24T00:07:19.568Z,9.03
2017-03-24T00:08:33.120Z,9.08
2017-03-24T00:09:49.755Z,9.03
2017-03-24T00:11:03.970Z,8.99
2017-03-24T00:12:17.831Z,9.02
2017-03-24T00:13:31.812Z,9.03
2017-03-24T00:14:45.223Z,8.99
2017-03-24T00:15:58.843Z,9.03
2017-03-24T00:17:12.464Z,9.08
2017-03-24T00:18:26.311Z,9.03
2017-03-24T00:19:39.754Z,9.16
2017-03-24T00:20:53.233Z,9.18
2017-03-24T00:22:06.772Z,9.18
2017-03-24T00:23:20.267Z,9.22
2017-03-24T00:24:33.934Z,9.11
2017-03-24T00:25:47.775Z,9.21
2017-03-24T00:27:02.274Z,9.31
2017-03-24T00:28:16.191Z,9.21
2017-03-24T00:29:29.957Z,9.18
2017-03-24T00:30:44.068Z,9.31
2017-03-24T00:31:57.474Z,9.24
2017-03-24T00:33:11.208Z,9.21
2017-03-24T00:34:24.610Z,9.29
2017-03-24T00:35:38.756Z,9.31
2017-03-24T00:36:52.409Z,9.27
2017-03-24T00:38:05.962Z,9.27
2017-03-24T00:39:20.350Z,9.21
2017-03-24T00:40:33.985Z,9.33
2017-03-24T00:41:47.481Z,9.37
2017-03-24T00:43:01.289Z,9.37
2017-03-24T00:44:15.239Z,9.34
2017-03-24T00:45:28.919Z,9.31
2017-03-24T00:46:42.722Z,9.37
2017-03-24T00:47:56.506Z,9.34
2017-03-24T00:49:10.895Z,9.36
2017-03-24T00:50:24.453Z,9.4
2017-03-24T00:51:37.855Z,9.4
2017-03-24T00:52:51.389Z,9.42
2017-03-24T00:54:04.865Z,9.42
2017-03-24T00:55:18.946Z,9.48
2017-03-24T00:56:32.546Z,9.47
2017-03-24T00:57:46.108Z,9.48
2017-03-24T00:59:00.205Z,9.47
2017-03-24T01:00:13.765Z,9.47
2017-03-24T01:01:27.494Z,9.48
2017-03-24T01:02:41.351Z,9.47
2017-03-24T01:03:54.849Z,9.48
2017-03-24T01:05:08.372Z,9.47
2017-03-24T01:06:21.777Z,9.45
2017-03-24T01:07:36.301Z,9.44
2017-03-24T01:08:50.353Z,9.51
2017-03-24T01:10:04.152Z,9.49
2017-03-24T01:11:17.857Z,9.45
2017-03-24T01:12:31.400Z,9.47
2017-03-24T01:13:45.125Z,9.56
2017-03-24T01:14:58.687Z,9.45
2017-03-24T01:16:12.070Z,9.48
2017-03-24T01:17:25.583Z,9.51
2017-03-24T01:18:39.071Z,9.48
2017-03-24T01:19:53.557Z,9.49
2017-03-24T01:21:07.009Z,9.45
2017-03-24T01:22:20.513Z,9.52
2017-03-24T01:23:34.066Z,9.47
2017-03-24T01:24:47.535Z,9.58
2017-03-24T01:26:04.037Z,9.48
2017-03-24T01:27:18.431Z,9.55
2017-03-24T01:28:31.884Z,9.54
2017-03-24T01:29:45.341Z,9.48
2017-03-24T01:30:58.645Z,9.45
2017-03-24T01:32:12.830Z,9.48
2017-03-24T01:33:26.171Z,9.47
2017-03-24T01:34:40.301Z,9.45
2017-03-24T01:35:53.749Z,9.48
2017-03-24T01:37:07.309Z,9.62
2017-03-24T01:38:21.221Z,9.69
2017-03-24T01:39:34.913Z,9.55
2017-03-24T01:40:48.654Z,9.63
2017-03-24T01:42:02.163Z,9.69
2017-03-24T01:43:15.720Z,9.62
2017-03-24T01:44:29.598Z,9.7
2017-03-24T01:45:43.078Z,9.67
2017-03-24T01:46:56.730Z,9.69
2017-03-24T01:48:10.168Z,9.66
2017-03-24T01:49:23.837Z,9.67
2017-03-24T01:50:37.469Z,9.66
2017-03-24T01:51:50.933Z,9.64
2017-03-24T01:53:04.735Z,9.66
2017-03-24T01:54:18.602Z,9.59
2017-03-24T01:55:32.228Z,9.62
2017-03-24T01:56:46.117Z,9.7
2017-03-24T01:57:59.545Z,9.63
2017-03-24T01:59:13.436Z,9.59
2017-03-24T02:00:26.934Z,9.64
2017-03-24T02:01:40.804Z,9.67
2017-03-24T02:02:54.496Z,9.66
2017-03-24T02:04:08.213Z,9.73
2017-03-24T02:05:21.588Z,9.74
2017-03-24T02:06:35.039Z,9.77
2017-03-24T02:07:48.444Z,9.77
2017-03-24T02:09:02.575Z,9.77
2017-03-24T02:10:16.305Z,9.82
2017-03-24T02:11:30.037Z,9.81
2017-03-24T02:12:44.623Z,9.74
2017-03-24T02:13:59.355Z,9.76
2017-03-24T02:15:13.400Z,9.8
2017-03-24T02:16:27.090Z,9.82
2017-03-24T02:17:40.969Z,9.77
2017-03-24T02:18:55.295Z,9.74
2017-03-24T02:20:08.858Z,9.8
2017-03-24T02:21:22.973Z,9.77
2017-03-24T02:22:36.448Z,9.81
2017-03-24T02:23:49.975Z,9.84
2017-03-24T02:25:03.448Z,9.88
2017-03-24T02:26:17.480Z,9.81
2017-03-24T02:27:31.203Z,9.76
2017-03-24T02:28:44.706Z,9.87
2017-03-24T02:29:58.180Z,9.85
2017-03-24T02:31:11.614Z,9.87
2017-03-24T02:32:25.226Z,9.85
2017-03-24T02:33:39.404Z,9.91
2017-03-24T02:34:52.720Z,9.85
2017-03-24T02:36:06.184Z,9.74
2017-03-24T02:37:19.726Z,9.88
2017-03-24T02:38:33.234Z,9.82
2017-03-24T02:39:47.318Z,9.87
2017-03-24T02:41:00.750Z,9.85
2017-03-24T02:42:16.196Z,9.88
2017-03-24T02:43:29.661Z,9.85
2017-03-24T02:44:43.238Z,9.85
2017-03-24T02:45:57.018Z,9.77
2017-03-24T02:47:10.434Z,9.76
2017-03-24T02:48:23.947Z,9.85
2017-03-24T02:49:37.317Z,9.8
2017-03-24T02:50:51.021Z,9.76
2017-03-24T02:52:04.637Z,9.77
2017-03-24T02:53:18.041Z,9.81
2017-03-24T02:54:32.164Z,9.81
2017-03-24T02:55:45.698Z,9.81
2017-03-24T02:56:59.045Z,9.87
2017-03-24T02:58:12.755Z,9.88
2017-03-24T02:59:26.129Z,9.84
2017-03-24T03:00:39.865Z,9.85
2017-03-24T03:01:53.236Z,9.88
2017-03-24T03:03:06.700Z,9.85
2017-03-24T03:04:20.344Z,9.87
2017-03-24T03:05:33.879Z,9.84
2017-03-24T03:06:47.494Z,9.84
2017-03-24T03:08:01.113Z,9.9
2017-03-24T03:09:14.811Z,9.9
2017-03-24T03:10:29.126Z,9.84
2017-03-24T03:11:42.824Z,9.9
2017-03-24T03:12:56.303Z,9.7
2017-03-24T03:14:09.980Z,9.74
2017-03-24T03:15:23.865Z,9.8
2017-03-24T03:16:37.872Z,9.8
2017-03-24T03:17:51.453Z,9.85
2017-03-24T03:19:05.176Z,9.8
2017-03-24T03:20:18.735Z,9.85
2017-03-24T03:21:32.459Z,9.77
2017-03-24T03:22:46.652Z,9.85
2017-03-24T03:24:00.078Z,9.77
2017-03-24T03:25:13.651Z,9.74
2017-03-24T03:26:27.040Z,9.81
2017-03-24T03:27:40.597Z,9.8
2017-03-24T03:28:54.514Z,9.76
2017-03-24T03:30:08.210Z,9.77
2017-03-24T03:31:21.674Z,9.73
2017-03-24T03:32:35.480Z,9.67
2017-03-24T03:33:49.226Z,9.74
2017-03-24T03:35:03.026Z,9.74
2017-03-24T03:36:16.589Z,9.77
2017-03-24T03:37:39.199Z,9.8
2017-03-24T03:38:52.642Z,9.76
2017-03-24T03:40:06.309Z,9.76
2017-03-24T03:41:19.744Z,9.77
2017-03-24T03:42:33.596Z,9.76
2017-03-24T03:43:47.412Z,9.74
2017-03-24T03:45:00.917Z,9.69
2017-03-24T03:46:14.279Z,9.66
2017-03-24T03:47:28.149Z,9.74
2017-03-24T03:48:41.505Z,9.64
2017-03-24T03:49:55.148Z,9.8
2017-03-24T03:51:08.549Z,9.77
2017-03-24T03:52:22.084Z,9.74
2017-03-24T03:53:35.493Z,9.69
2017-03-24T03:54:49.132Z,9.67
2017-03-24T03:56:02.543Z,9.66
2017-03-24T03:57:16.082Z,9.69
2017-03-24T03:58:31.866Z,9.66
2017-03-24T03:59:45.838Z,9.67
2017-03-24T04:00:59.193Z,9.67
2017-03-24T04:02:12.727Z,9.66
2017-03-24T04:03:26.488Z,9.67
2017-03-24T04:04:40.406Z,9.64
2017-03-24T04:05:54.725Z,9.52
2017-03-24T04:07:08.515Z,9.63
2017-03-24T04:08:22.015Z,9.64
2017-03-24T04:09:35.600Z,9.59
2017-03-24T04:10:49.003Z,9.55
2017-03-24T04:12:02.837Z,9.59
2017-03-24T04:13:16.612Z,9.58
2017-03-24T04:14:47.376Z,9.64
2017-03-24T04:16:00.943Z,9.62
2017-03-24T04:17:14.924Z,9.56
2017-03-24T04:18:28.408Z,9.59
2017-03-24T04:19:41.707Z,9.69
2017-03-24T04:20:55.127Z,9.69
2017-03-24T04:22:08.817Z,9.7
2017-03-24T04:24:14.235Z,9.62
2017-03-24T04:25:27.811Z,9.56
2017-03-24T04:26:41.915Z,9.67
2017-03-24T04:27:55.372Z,9.59
2017-03-24T04:29:10.166Z,9.54
2017-03-24T04:30:23.813Z,9.62
2017-03-24T04:31:37.238Z,9.54
2017-03-24T04:32:51.140Z,9.62
2017-03-24T04:34:04.650Z,9.59
2017-03-24T04:35:18.214Z,9.55
2017-03-24T04:36:31.661Z,9.54
2017-03-24T04:37:45.135Z,9.69
2017-03-24T04:38:58.507Z,9.7
2017-03-24T04:40:12.148Z,9.7
2017-03-24T04:41:25.500Z,9.69
2017-03-24T04:42:39.599Z,9.58
2017-03-24T04:43:53.066Z,9.58
2017-03-24T04:45:06.805Z,9.55
2017-03-24T04:46:20.201Z,9.49
2017-03-24T04:47:33.754Z,9.54
2017-03-24T04:48:47.764Z,9.49
2017-03-24T04:50:01.226Z,9.56
2017-03-24T04:51:14.620Z,9.58
2017-03-24T04:52:28.099Z,9.56
2017-03-24T04:53:41.480Z,9.52
2017-03-24T04:54:55.000Z,9.55
2017-03-24T04:56:08.785Z,9.62
2017-03-24T04:57:22.286Z,9.58
2017-03-24T04:58:35.968Z,9.56
2017-03-24T04:59:49.406Z,9.54
2017-03-24T05:01:02.892Z,9.55
2017-03-24T05:02:16.374Z,9.55
2017-03-24T05:03:30.060Z,9.55
2017-03-24T05:04:44.243Z,9.67
2017-03-24T05:05:57.867Z,9.58
2017-03-24T05:07:11.394Z,9.64
2017-03-24T05:08:25.051Z,9.59
2017-03-24T05:09:38.632Z,9.56
2017-03-24T05:10:52.026Z,9.62
2017-03-24T05:12:05.776Z,9.67
2017-03-24T05:13:19.465Z,9.64
2017-03-24T05:14:32.995Z,9.63
2017-03-24T05:15:48.642Z,9.55
2017-03-24T05:17:03.265Z,9.63
2017-03-24T05:18:16.977Z,9.67
2017-03-24T05:19:30.928Z,9.63
2017-03-24T05:20:44.909Z,9.63
2017-03-24T05:21:58.373Z,9.66
2017-03-24T05:23:12.212Z,9.67
2017-03-24T05:24:26.181Z,9.63
2017-03-24T05:25:39.900Z,9.67
2017-03-24T05:26:53.399Z,9.66
2017-03-24T05:28:08.291Z,9.64
2017-03-24T05:29:21.855Z,9.69
2017-03-24T05:30:35.868Z,9.58
2017-03-24T05:31:49.402Z,9.52
2017-03-24T05:33:03.246Z,9.95
2017-03-24T05:34:16.884Z,10.15
2017-03-24T05:35:30.297Z,10.25
2017-03-24T05:36:44.112Z,10.18
2017-03-24T05:37:57.531Z,10.1
2017-03-24T05:39:11.043Z,9.94
2017-03-24T05:40:24.934Z,9.87
2017-03-24T05:41:38.467Z,9.74
2017-03-24T05:42:51.893Z,9.63
2017-03-24T05:44:05.830Z,9.63
2017-03-24T05:45:19.230Z,9.58
2017-03-24T05:46:32.699Z,9.66
2017-03-24T05:47:46.110Z,9.56
2017-03-24T05:48:59.761Z,9.56
2017-03-24T05:50:13.287Z,9.52
2017-03-24T05:51:26.751Z,9.52
2017-03-24T05:52:40.124Z,9.52
2017-03-24T05:53:54.164Z,9.45
2017-03-24T05:55:07.574Z,9.42
2017-03-24T05:56:21.152Z,9.54
2017-03-24T05:57:34.808Z,9.55
2017-03-24T05:58:49.445Z,9.45
2017-03-24T06:00:02.870Z,9.59
2017-03-24T06:01:16.319Z,9.51
2017-03-24T06:02:29.653Z,9.49
2017-03-24T06:03:43.779Z,9.54
2017-03-24T06:04:58.827Z,9.63
2017-03-24T06:06:12.747Z,9.64
2017-03-24T06:07:26.319Z,9.67
2017-03-24T06:08:40.832Z,9.64
2017-03-24T06:09:54.217Z,9.63
2017-03-24T06:11:08.090Z,9.56
2017-03-24T06:12:21.851Z,9.62
2017-03-24T06:13:35.966Z,9.64
2017-03-24T06:14:49.421Z,9.62
2017-03-24T06:16:02.993Z,9.63
2017-03-24T06:17:16.726Z,9.66
2017-03-24T06:18:30.372Z,9.67
2017-03-24T06:19:47.094Z,9.63
2017-03-24T06:21:01.586Z,9.69
2017-03-24T06:22:15.809Z,9.7
2017-03-24T06:23:29.353Z,9.64
2017-03-24T06:24:42.825Z,9.64
2017-03-24T06:25:56.707Z,9.56
2017-03-24T06:27:10.508Z,9.59
2017-03-24T06:28:24.085Z,9.54
2017-03-24T06:29:38.340Z,9.67
2017-03-24T06:30:52.805Z,9.62
2017-03-24T06:32:08.736Z,9.64
2017-03-24T06:33:31.501Z,9.69
2017-03-24T06:34:45.892Z,9.66
2017-03-24T06:35:59.391Z,9.66
2017-03-24T06:37:12.804Z,9.59
2017-03-24T06:38:26.349Z,9.54
2017-03-24T06:39:40.358Z,9.55
2017-03-24T06:40:54.278Z,9.7
2017-03-24T06:42:08.072Z,9.69
2017-03-24T06:43:21.616Z,9.63
2017-03-24T06:44:35.039Z,9.63
2017-03-24T06:45:48.936Z,9.58
2017-03-24T06:47:02.858Z,9.69
2017-03-24T06:48:17.336Z,9.55
2017-03-24T06:49:30.737Z,9.69
2017-03-24T06:50:44.225Z,9.67
2017-03-24T06:51:57.753Z,9.74
2017-03-24T06:53:11.668Z,9.8
2017-03-24T06:54:25.090Z,9.67
2017-03-24T06:55:38.608Z,9.66
2017-03-24T06:56:52.151Z,9.67
2017-03-24T06:58:05.767Z,9.64
2017-03-24T06:59:19.577Z,9.55
2017-03-24T07:00:33.417Z,9.58
2017-03-24T07:01:46.804Z,9.67
2017-03-24T07:03:15.229Z,9.74
2017-03-24T07:04:28.597Z,9.64
2017-03-24T07:05:42.442Z,9.63
2017-03-24T07:06:56.254Z,9.81
2017-03-24T07:08:23.441Z,9.81
2017-03-24T07:09:36.842Z,9.77
2017-03-24T07:10:50.340Z,9.85
2017-03-24T07:12:03.778Z,9.87
2017-03-24T07:13:17.858Z,9.85
2017-03-24T07:14:31.466Z,9.85
2017-03-24T07:15:54.270Z,9.88
2017-03-24T07:17:07.648Z,9.9
2017-03-24T07:18:21.228Z,9.9
2017-03-24T07:19:34.880Z,9.81
2017-03-24T07:20:48.315Z,9.95
2017-03-24T07:22:01.703Z,9.92
2017-03-24T07:23:15.170Z,9.87
2017-03-24T07:24:28.638Z,9.84
2017-03-24T07:25:42.536Z,9.84
2017-03-24T07:26:56.293Z,9.82
2017-03-24T07:28:10.115Z,9.84
2017-03-24T07:29:23.553Z,9.91
2017-03-24T07:30:52.390Z,9.91
2017-03-24T07:32:06.492Z,9.92
2017-03-24T07:33:21.530Z,9.99
2017-03-24T07:34:35.332Z,9.97
2017-03-24T07:35:49.121Z,10
2017-03-24T07:37:02.723Z,10.03
2017-03-24T07:38:16.539Z,10.07
2017-03-24T07:39:48.080Z,10.09
2017-03-24T07:41:01.931Z,10.09
2017-03-24T07:42:16.328Z,10.12
2017-03-24T07:43:29.882Z,10.09
2017-03-24T07:44:43.504Z,10.09
2017-03-24T07:45:57.773Z,10.12
2017-03-24T07:47:11.400Z,10.09
2017-03-24T07:48:24.978Z,10.1
2017-03-24T07:49:40.562Z,10.1
2017-03-24T07:50:54.147Z,10.13
2017-03-24T07:52:07.922Z,10.02
2017-03-24T07:53:22.065Z,10.12
2017-03-24T07:54:35.991Z,10.13
2017-03-24T07:55:49.583Z,10.24
2017-03-24T07:57:03.051Z,10.2
2017-03-24T07:58:16.535Z,10.03
2017-03-24T07:59:30.209Z,10.09
2017-03-24T08:00:44.853Z,10.12
2017-03-24T08:01:59.170Z,10.09
2017-03-24T08:03:14.719Z,10.15
2017-03-24T08:04:28.222Z,10.05
2017-03-24T08:05:42.962Z,10.12
2017-03-24T08:06:56.601Z,10.15
2017-03-24T08:08:10.293Z,10.13
2017-03-24T08:09:23.933Z,10.1
2017-03-24T08:10:37.646Z,10.1
2017-03-24T08:11:51.374Z,10.21
2017-03-24T08:13:04.894Z,10.21
2017-03-24T08:14:18.647Z,10.18
2017-03-24T08:15:32.251Z,10.09
2017-03-24T08:16:45.764Z,10.07
2017-03-24T08:17:59.529Z,10.07
2017-03-24T08:19:14.777Z,10.06
2017-03-24T08:20:28.687Z,10.07
2017-03-24T08:21:42.557Z,10.03
2017-03-24T08:22:56.198Z,10.18
2017-03-24T08:24:10.035Z,10.06
2017-03-24T08:25:40.933Z,10.15
2017-03-24T08:26:54.983Z,10.18
2017-03-24T08:28:08.739Z,10.28
2017-03-24T08:29:22.277Z,10.18
2017-03-24T08:30:35.753Z,10.21
2017-03-24T08:31:51.321Z,10.21
2017-03-24T08:33:05.105Z,10.38
2017-03-24T08:34:18.813Z,10.43
2017-03-24T08:35:32.641Z,10.34
2017-03-24T08:36:46.191Z,10.36
2017-03-24T08:37:59.791Z,10.31
2017-03-24T08:39:13.828Z,10.27
2017-03-24T08:40:27.495Z,10.39
2017-03-24T08:41:52.116Z,10.25
2017-03-24T08:43:08.007Z,10.21
2017-03-24T08:44:21.878Z,10.23
2017-03-24T08:45:35.777Z,10.2
2017-03-24T08:46:49.324Z,10.25
2017-03-24T08:48:02.940Z,10.28
2017-03-24T08:49:16.743Z,10.18
2017-03-24T08:50:30.151Z,10.36
2017-03-24T08:51:43.691Z,10.18
2017-03-24T08:52:57.119Z,10.21
2017-03-24T08:54:10.634Z,10.23
2017-03-24T08:55:24.533Z,10.24
2017-03-24T08:56:38.113Z,10.28
2017-03-24T08:57:51.859Z,10.36
2017-03-24T08:59:05.365Z,10.43
2017-03-24T09:00:18.803Z,10.34
2017-03-24T09:01:32.757Z,10.36
2017-03-24T09:02:46.168Z,10.36
2017-03-24T09:03:59.712Z,10.31
2017-03-24T09:05:13.408Z,10.3
2017-03-24T09:06:29.108Z,10.42
2017-03-24T09:07:42.763Z,10.43
2017-03-24T09:08:56.305Z,10.59
2017-03-24T09:10:09.973Z,10.69
2017-03-24T09:11:23.487Z,10.71
2017-03-24T09:12:36.827Z,10.87
2017-03-24T09:13:51.312Z,11.02
2017-03-24T09:15:04.668Z,11.1
2017-03-24T09:16:18.209Z,11.12
2017-03-24T09:17:32.309Z,11.04
2017-03-24T09:18:46.133Z,11.18
2017-03-24T09:19:59.817Z,11.25
2017-03-24T09:21:13.474Z,11.18
2017-03-24T09:22:27.121Z,11.18
2017-03-24T09:23:41.396Z,11.2
2017-03-24T09:24:54.766Z,11.33
2017-03-24T09:26:08.668Z,11.56
2017-03-24T09:27:23.128Z,11.53
2017-03-24T09:28:36.720Z,11.65
2017-03-24T09:29:50.086Z,11.71
2017-03-24T09:31:12.653Z,11.68
2017-03-24T09:32:26.062Z,11.62
2017-03-24T09:33:39.485Z,11.62
2017-03-24T09:34:52.864Z,11.65
2017-03-24T09:36:06.589Z,11.63
2017-03-24T09:37:19.955Z,11.58
2017-03-24T09:38:33.724Z,11.41
2017-03-24T09:39:47.096Z,11.23
2017-03-24T09:41:00.547Z,11.27
2017-03-24T09:42:13.931Z,11.34
2017-03-24T09:43:27.348Z,11.33
2017-03-24T09:44:40.649Z,11.53
2017-03-24T09:45:54.707Z,11.62
2017-03-24T09:47:08.036Z,11.74
2017-03-24T09:48:21.485Z,11.93
2017-03-24T09:49:34.775Z,12.11
2017-03-24T09:50:48.278Z,12.21
2017-03-24T09:52:01.607Z,12.1
2017-03-24T09:53:15.220Z,11.91
2017-03-24T09:54:28.980Z,12.05
2017-03-24T09:55:42.752Z,12.2
2017-03-24T09:56:56.125Z,12.11
2017-03-24T09:58:09.715Z,12.17
2017-03-24T09:59:23.286Z,12.12
2017-03-24T10:00:52.709Z,12.1
2017-03-24T10:02:06.450Z,12.08
2017-03-24T10:03:20.416Z,12.23
2017-03-24T10:04:33.881Z,12.66
2017-03-24T10:05:47.606Z,12.65
2017-03-24T10:07:01.029Z,12.72
2017-03-24T10:08:14.852Z,12.66
2017-03-24T10:09:28.305Z,12.5
2017-03-24T10:10:41.778Z,12.4
2017-03-24T10:11:55.194Z,12.35
2017-03-24T10:13:08.993Z,12.26
2017-03-24T10:14:23.029Z,12.3
2017-03-24T10:15:36.635Z,12.4
2017-03-24T10:16:50.413Z,12.69
2017-03-24T10:18:04.481Z,12.69
2017-03-24T10:19:17.917Z,12.57
2017-03-24T10:20:31.719Z,12.75
2017-03-24T10:21:45.712Z,12.8
2017-03-24T10:23:01.660Z,12.75
2017-03-24T10:24:15.077Z,12.94
2017-03-24T10:25:29.233Z,12.76
2017-03-24T10:26:43.278Z,12.69
2017-03-24T10:27:57.108Z,12.69
2017-03-24T10:29:10.498Z,12.54
2017-03-24T10:30:24.294Z,12.69
2017-03-24T10:31:37.666Z,12.53
2017-03-24T10:32:51.459Z,12.47
2017-03-24T10:34:05.122Z,12.39
2017-03-24T10:35:18.951Z,12.35
2017-03-24T10:36:32.326Z,12.32
2017-03-24T10:37:45.901Z,12.21
2017-03-24T10:38:59.626Z,12.26
2017-03-24T10:40:13.465Z,12.35
2017-03-24T10:41:26.915Z,12.36
2017-03-24T10:42:40.545Z,12.29
2017-03-24T10:43:53.957Z,12.33
2017-03-24T10:45:07.839Z,12.28
2017-03-24T10:46:21.218Z,12.23
2017-03-24T10:47:35.021Z,12.08
2017-03-24T10:48:48.456Z,11.96
2017-03-24T10:50:02.029Z,11.81
2017-03-24T10:51:15.729Z,11.86
2017-03-24T10:52:29.268Z,12.02
2017-03-24T10:53:42.959Z,12.11
2017-03-24T10:54:56.527Z,12.15
2017-03-24T10:56:09.862Z,12.33
2017-03-24T10:57:23.591Z,12.4
2017-03-24T10:58:37.267Z,12.5
2017-03-24T10:59:50.835Z,12.68
2017-03-24T11:01:04.278Z,12.63
2017-03-24T11:02:18.178Z,12.8
2017-03-24T11:03:31.902Z,12.87
2017-03-24T11:04:45.872Z,12.88
2017-03-24T11:06:00.584Z,12.98
2017-03-24T11:07:14.160Z,13.12
2017-03-24T11:08:27.626Z,13.17
2017-03-24T11:09:41.567Z,13.24
2017-03-24T11:10:55.107Z,13.17
2017-03-24T11:12:09.452Z,13.37
2017-03-24T11:13:23.175Z,13.54
2017-03-24T11:14:36.816Z,13.6
2017-03-24T11:15:50.504Z,13.79
2017-03-24T11:17:04.462Z,13.78
2017-03-24T11:18:18.327Z,14.03
2017-03-24T11:19:32.508Z,13.93
2017-03-24T11:20:45.940Z,13.94
2017-03-24T11:21:59.774Z,13.97
2017-03-24T11:23:13.197Z,13.87
2017-03-24T11:24:27.035Z,14.04
2017-03-24T11:25:40.483Z,14.11
2017-03-24T11:26:54.168Z,14.07
2017-03-24T11:28:08.582Z,14.05
2017-03-24T11:29:22.100Z,13.87
2017-03-24T11:30:35.550Z,13.8
2017-03-24T11:31:49.393Z,13.62
2017-03-24T11:33:02.857Z,13.71
2017-03-24T11:34:16.786Z,13.61
2017-03-24T11:35:30.227Z,13.71
2017-03-24T11:36:44.194Z,14.04
2017-03-24T11:37:57.770Z,13.94
2017-03-24T11:39:13.876Z,14.03
2017-03-24T11:40:27.586Z,14.16
2017-03-24T11:41:41.232Z,14.2
2017-03-24T11:42:54.636Z,14.23
2017-03-24T11:44:08.282Z,14.13
2017-03-24T11:45:21.927Z,14.15
2017-03-24T11:46:35.888Z,14.26
2017-03-24T11:47:49.506Z,14.05
2017-03-24T11:49:03.703Z,14.04
2017-03-24T11:50:17.350Z,13.94
2017-03-24T11:51:30.932Z,13.98
2017-03-24T11:52:44.677Z,14
2017-03-24T11:53:58.277Z,14.01
2017-03-24T11:55:11.967Z,13.79
2017-03-24T11:56:26.220Z,13.83
2017-03-24T11:57:39.972Z,13.93
2017-03-24T11:58:54.185Z,13.87
2017-03-24T12:00:07.559Z,13.98
2017-03-24T12:01:21.281Z,14.04
2017-03-24T12:02:34.769Z,14.01
2017-03-24T12:03:48.331Z,14.16
2017-03-24T12:05:01.975Z,14.15
2017-03-24T12:06:15.535Z,14.15
2017-03-24T12:07:28.913Z,14.15
2017-03-24T12:08:42.398Z,14.23
2017-03-24T12:09:56.557Z,14.05
2017-03-24T12:11:10.321Z,14.13
2017-03-24T12:12:23.773Z,14.04
2017-03-24T12:13:37.737Z,14.08
2017-03-24T12:14:51.503Z,14.22
2017-03-24T12:16:04.967Z,14.2
2017-03-24T12:17:18.691Z,14.05
2017-03-24T12:18:32.252Z,14
2017-03-24T12:19:46.441Z,14
2017-03-24T12:20:59.970Z,13.95
2017-03-24T12:22:13.403Z,13.85
2017-03-24T12:23:27.431Z,13.95
2017-03-24T12:24:41.107Z,13.86
2017-03-24T12:26:08.291Z,13.89
2017-03-24T12:27:21.706Z,14.08
2017-03-24T12:28:35.948Z,14.16
2017-03-24T12:29:50.134Z,14.34
2017-03-24T12:31:03.710Z,14.45
2017-03-24T12:32:18.012Z,14.55
2017-03-24T12:33:31.981Z,14.31
2017-03-24T12:34:46.153Z,14.34
2017-03-24T12:35:59.759Z,14.25
2017-03-24T12:37:13.154Z,14.31
2017-03-24T12:38:27.312Z,14.45
2017-03-24T12:39:41.377Z,14.44
2017-03-24T12:40:55.368Z,14.58
2017-03-24T12:42:08.989Z,14.81
2017-03-24T12:43:22.830Z,14.78
2017-03-24T12:44:36.248Z,14.94
2017-03-24T12:45:50.059Z,15.07
2017-03-24T12:47:03.446Z,15.15
2017-03-24T12:48:16.982Z,15.14
2017-03-24T12:49:30.458Z,15.1
2017-03-24T12:50:44.459Z,15.15
2017-03-24T12:51:58.888Z,14.93
2017-03-24T12:53:12.620Z,14.97
2017-03-24T12:54:26.495Z,14.92
2017-03-24T12:55:42.333Z,14.82
2017-03-24T12:56:55.825Z,14.7
2017-03-24T12:58:10.138Z,14.78
2017-03-24T12:59:23.692Z,14.9
2017-03-24T13:00:38.046Z,14.82
2017-03-24T13:01:51.530Z,14.61
2017-03-24T13:03:05.716Z,14.52
2017-03-24T13:04:20.138Z,14.55
2017-03-24T13:05:33.809Z,14.51
2017-03-24T13:06:47.231Z,14.55
2017-03-24T13:08:00.879Z,14.63
2017-03-24T13:09:14.643Z,14.7
2017-03-24T13:10:28.599Z,14.63
2017-03-24T13:11:42.108Z,14.63
2017-03-24T13:12:55.660Z,14.52
2017-03-24T13:14:09.146Z,14.66
2017-03-24T13:15:23.382Z,14.74
2017-03-24T13:16:37.363Z,14.74
2017-03-24T13:17:51.253Z,14.93
2017-03-24T13:19:05.043Z,14.9
2017-03-24T13:20:18.938Z,14.96
2017-03-24T13:21:32.420Z,14.81
2017-03-24T13:22:46.678Z,14.82
2017-03-24T13:24:01.053Z,14.85
2017-03-24T13:25:15.158Z,14.68
2017-03-24T13:26:28.994Z,14.74
2017-03-24T13:27:42.881Z,14.82
2017-03-24T13:28:56.606Z,14.85
2017-03-24T13:30:10.542Z,14.74
2017-03-24T13:31:25.303Z,14.81
2017-03-24T13:32:39.597Z,14.82
2017-03-24T13:33:53.033Z,14.81
2017-03-24T13:35:06.977Z,14.78
2017-03-24T13:36:20.889Z,14.66
2017-03-24T13:37:34.494Z,14.7
2017-03-24T13:38:49.145Z,14.77
2017-03-24T13:40:02.647Z,14.78
2017-03-24T13:41:16.719Z,14.71
2017-03-24T13:42:30.303Z,14.63
2017-03-24T13:43:44.267Z,14.67
2017-03-24T13:44:58.164Z,14.7
2017-03-24T13:46:11.563Z,14.68
2017-03-24T13:47:25.805Z,14.82
2017-03-24T13:48:39.256Z,14.85
2017-03-24T13:49:52.775Z,14.92
2017-03-24T13:51:06.275Z,14.97
2017-03-24T13:52:19.896Z,15.04
2017-03-24T13:53:34.123Z,15.04
2017-03-24T13:54:47.680Z,15.18
2017-03-24T13:56:04.214Z,15.08
2017-03-24T13:57:17.674Z,15.02
2017-03-24T13:58:31.159Z,15.15
2017-03-24T13:59:45.151Z,15.05
2017-03-24T14:00:58.819Z,15.08
2017-03-24T14:02:12.311Z,15.04
2017-03-24T14:03:26.130Z,15.18
2017-03-24T14:04:40.302Z,15.15
2017-03-24T14:05:53.892Z,15.12
2017-03-24T14:07:07.406Z,15.08
2017-03-24T14:08:20.862Z,15.05
2017-03-24T14:09:34.437Z,14.96
2017-03-24T14:10:47.951Z,14.97
2017-03-24T14:12:04.604Z,14.96
2017-03-24T14:13:18.184Z,14.94
2017-03-24T14:14:44.942Z,14.99
2017-03-24T14:15:58.726Z,14.96
2017-03-24T14:17:12.302Z,14.94
2017-03-24T14:18:26.251Z,14.92
2017-03-24T14:19:39.741Z,15.02
2017-03-24T14:20:53.094Z,15.05
2017-03-24T14:22:21.176Z,15.05
2017-03-24T14:23:34.828Z,15.02
2017-03-24T14:24:48.878Z,15.05
2017-03-24T14:26:02.177Z,15.14
2017-03-24T14:27:15.624Z,15.07
2017-03-24T14:28:29.088Z,15.1
2017-03-24T14:29:43.055Z,15.26
2017-03-24T14:30:56.400Z,15.33
2017-03-24T14:32:10.187Z,15.33
2017-03-24T14:33:23.587Z,15.29
2017-03-24T14:34:37.847Z,15.26
2017-03-24T14:35:51.491Z,15.29
2017-03-24T14:37:05.097Z,15.25
2017-03-24T14:38:19.191Z,15.37
2017-03-24T14:39:33.219Z,15.33
2017-03-24T14:40:46.968Z,15.33
2017-03-24T14:42:01.612Z,15.44
2017-03-24T14:43:15.184Z,15.43
2017-03-24T14:44:30.258Z,15.47
2017-03-24T14:45:43.789Z,15.57
2017-03-24T14:48:04.104Z,15.57
2017-03-24T14:49:23.957Z,15.57
2017-03-24T14:50:38.896Z,15.51
2017-03-24T14:52:07.187Z,15.44
2017-03-24T14:53:20.613Z,15.37
2017-03-24T14:54:34.497Z,15.47
2017-03-24T14:55:48.028Z,15.45
2017-03-24T14:57:22.644Z,15.43
2017-03-24T14:58:45.329Z,15.43
2017-03-24T14:59:59.035Z,15.37
2017-03-24T15:01:13.248Z,15.51
2017-03-24T15:02:27.149Z,15.51
2017-03-24T15:03:40.981Z,15.55
2017-03-24T15:04:55.152Z,15.45
2017-03-24T15:06:23.582Z,15.5
2017-03-24T15:07:37.656Z,15.57
2017-03-24T15:08:51.330Z,15.59
2017-03-24T15:10:05.759Z,15.62
2017-03-24T15:11:19.429Z,15.54
2017-03-24T15:12:32.915Z,15.65
2017-03-24T15:14:12.173Z,15.8
2017-03-24T15:15:26.875Z,15.88
2017-03-24T15:16:40.816Z,15.84
2017-03-24T15:17:54.470Z,15.85
2017-03-24T15:19:07.935Z,15.81
2017-03-24T15:20:21.629Z,15.88
2017-03-24T15:21:35.354Z,15.75
2017-03-24T15:22:48.931Z,15.84
2017-03-24T15:24:03.089Z,15.76
2017-03-24T15:25:17.419Z,15.69
2017-03-24T15:26:30.941Z,15.81
2017-03-24T15:27:44.418Z,15.85
2017-03-24T15:28:57.882Z,15.83
2017-03-24T15:30:11.411Z,15.87
2017-03-24T15:31:28.189Z,15.84
2017-03-24T15:32:41.744Z,15.99
2017-03-24T15:33:55.547Z,15.83
2017-03-24T15:35:09.185Z,15.87
2017-03-24T15:36:23.024Z,15.94
2017-03-24T15:37:36.618Z,15.75
2017-03-24T15:38:50.259Z,15.69
2017-03-24T15:40:04.068Z,15.76
2017-03-24T15:41:17.838Z,15.8
2017-03-24T15:42:31.439Z,15.73
2017-03-24T15:43:44.854Z,15.73
2017-03-24T15:44:58.491Z,15.63
2017-03-24T15:46:12.299Z,15.6
2017-03-24T15:47:26.024Z,15.76
2017-03-24T15:48:40.626Z,15.72
2017-03-24T15:49:55.475Z,15.72
2017-03-24T15:51:08.994Z,15.76
2017-03-24T15:52:33.803Z,15.73
2017-03-24T15:53:47.300Z,15.62
2017-03-24T15:55:01.153Z,15.65
2017-03-24T15:56:14.842Z,15.65
2017-03-24T15:57:29.115Z,15.65
2017-03-24T15:58:43.105Z,15.6
2017-03-24T15:59:57.406Z,15.45
2017-03-24T16:01:11.681Z,15.5
2017-03-24T16:02:25.302Z,15.51
2017-03-24T16:03:38.813Z,15.55
2017-03-24T16:04:52.619Z,15.66
2017-03-24T16:06:06.477Z,15.57
2017-03-24T16:07:20.261Z,15.6
2017-03-24T16:08:34.833Z,15.62
2017-03-24T16:09:48.716Z,15.63
2017-03-24T16:11:02.475Z,15.78
2017-03-24T16:12:16.015Z,15.57
2017-03-24T16:13:29.718Z,15.66
2017-03-24T16:14:43.520Z,15.6
2017-03-24T16:15:57.332Z,15.65